Time;durP1;ratioP1;P1;durP2;ratioP2;P2;SDS_P1;SDS_P2;PMS_P1;PMS_P2;Temp;Humidity;BMP_temperature;BMP_pressure;BME280_temperature;BME280_humidity;BME280_pressure;Samples;Min_cycle;Max_cycle;Signal;HPM_P1;HPM_P2
2021/04/12 00:00:03;;;;;;;1.20;1.20;;;6.40;98.00;;;;;;5092931;28;20458;-70
2021/04/12 00:02:36;;;;;;;1.47;1.23;;;6.40;98.00;;;;;;5092528;28;20487;-70
2021/04/12 00:05:13;;;;;;;1.30;1.20;;;6.30;98.00;;;;;;5095421;28;20451;-70
2021/04/12 00:07:45;;;;;;;1.10;1.00;;;6.30;98.00;;;;;;5094013;28;20462;-70
2021/04/12 00:10:18;;;;;;;1.10;1.00;;;6.10;98.00;;;;;;5095243;28;20459;-70
2021/04/12 00:12:50;;;;;;;1.10;0.90;;;6.10;98.00;;;;;;5095183;28;20470;-70
2021/04/12 00:15:23;;;;;;;1.10;0.90;;;6.00;98.00;;;;;;5092681;28;20520;-71
2021/04/12 00:17:53;;;;;;;2.27;1.30;;;6.00;98.00;;;;;;5094984;28;20458;-70
2021/04/12 00:20:28;;;;;;;1.10;1.00;;;6.10;98.00;;;;;;5092193;28;20461;-71
2021/04/12 00:22:59;;;;;;;1.10;0.90;;;6.20;98.00;;;;;;5094870;28;20562;-70
2021/04/12 00:25:31;;;;;;;1.20;1.10;;;6.20;98.00;;;;;;5090985;28;20745;-71
2021/04/12 00:28:03;;;;;;;1.20;1.03;;;6.00;98.00;;;;;;5094553;28;20461;-70
2021/04/12 00:30:34;;;;;;;1.13;1.00;;;6.10;98.00;;;;;;5092068;28;20464;-71
2021/04/12 00:33:05;;;;;;;1.80;1.47;;;6.10;98.00;;;;;;5094607;28;20458;-70
2021/04/12 00:35:37;;;;;;;1.20;1.00;;;6.10;98.00;;;;;;5091869;28;20458;-71
2021/04/12 00:38:13;;;;;;;1.17;0.90;;;6.10;98.00;;;;;;5094521;28;20453;-70
2021/04/12 00:40:45;;;;;;;1.17;1.00;;;6.30;98.00;;;;;;5091971;28;20452;-71
2021/04/12 00:43:19;;;;;;;1.17;1.00;;;6.30;98.00;;;;;;5094026;28;20533;-70
2021/04/12 00:46:28;;;;;;;1.80;1.37;;;6.50;98.00;;;;;;5091590;28;20459;-70
2021/04/12 00:49:09;;;;;;;1.20;1.00;;;6.60;98.00;;;;;;5064216;28;20502;-70
2021/04/12 00:51:46;;;;;;;1.20;0.90;;;6.50;98.00;;;;;;5091433;28;20450;-70
2021/04/12 00:54:40;;;;;;;1.20;1.00;;;6.60;98.00;;;;;;5092892;28;20457;-70
2021/04/12 00:57:17;;;;;;;1.20;0.90;;;6.60;98.00;;;;;;5091554;28;20460;-70
2021/04/12 00:59:50;;;;;;;1.60;1.20;;;6.30;98.00;;;;;;5093863;28;20463;-70
2021/04/12 01:02:29;;;;;;;1.20;1.00;;;6.10;98.00;;;;;;5091534;28;21004;-70
2021/04/12 01:05:06;;;;;;;1.20;0.90;;;5.80;98.00;;;;;;5094253;28;20458;-70
2021/04/12 01:08:07;;;;;;;1.20;0.90;;;5.70;98.00;;;;;;5091472;28;20458;-70
2021/04/12 01:10:54;;;;;;;1.20;1.00;;;5.80;98.00;;;;;;5091576;28;20483;-71
2021/04/12 01:13:50;;;;;;;1.20;1.00;;;5.70;98.00;;;;;;5093885;28;20940;-70
2021/04/12 01:16:43;;;;;;;1.20;0.90;;;5.60;98.00;;;;;;5091355;28;20965;-70
2021/04/12 01:19:58;;;;;;;1.20;0.90;;;5.40;98.00;;;;;;5093871;28;20457;-70
2021/04/12 01:23:14;;;;;;;1.30;1.10;;;5.30;98.00;;;;;;5091143;28;20478;-70
2021/04/12 01:26:30;;;;;;;1.20;1.00;;;5.40;98.00;;;;;;5091077;28;20473;-71
2021/04/12 01:29:33;;;;;;;1.20;1.00;;;5.50;98.00;;;;;;5093681;28;20462;-70
2021/04/12 01:32:21;;;;;;;1.20;1.00;;;5.50;98.00;;;;;;5091040;28;20459;-70
2021/04/12 01:35:22;;;;;;;1.20;0.90;;;5.60;98.00;;;;;;5093455;28;20480;-70
2021/04/12 01:37:55;;;;;;;1.20;1.00;;;5.50;98.00;;;;;;5092154;28;20461;-70
2021/04/12 01:40:38;;;;;;;1.20;1.03;;;5.30;98.00;;;;;;5092631;28;20510;-70
2021/04/12 01:43:11;;;;;;;1.73;1.27;;;5.30;98.00;;;;;;5092044;28;20527;-70
2021/04/12 01:45:48;;;;;;;1.20;1.00;;;5.00;98.00;;;;;;5090636;28;20464;-71
2021/04/12 01:48:46;;;;;;;1.20;1.00;;;4.90;98.00;;;;;;5093231;28;20526;-70
2021/04/12 01:51:31;;;;;;;1.53;1.27;;;5.00;98.00;;;;;;5090463;28;20456;-70
2021/04/12 01:54:34;;;;;;;1.20;1.10;;;5.00;98.00;;;;;;5093131;28;20467;-70
2021/04/12 01:57:45;;;;;;;1.20;1.00;;;5.00;98.00;;;;;;5085755;28;20473;-70
2021/04/12 02:00:39;;;;;;;1.20;1.00;;;5.10;98.00;;;;;;5077769;28;20551;-70
2021/04/12 02:03:27;;;;;;;1.20;1.00;;;5.10;98.00;;;;;;5092703;28;20495;-70
2021/04/12 02:06:30;;;;;;;1.30;1.13;;;5.00;98.00;;;;;;5090071;28;20448;-70
2021/04/12 02:09:04;;;;;;;1.20;0.90;;;5.00;98.00;;;;;;5092927;28;20489;-70
2021/04/12 02:11:53;;;;;;;1.60;1.37;;;5.00;98.00;;;;;;5089994;28;20521;-70
2021/04/12 02:14:43;;;;;;;1.77;1.17;;;4.90;98.00;;;;;;5092825;28;20845;-70
2021/04/12 02:17:16;;;;;;;1.40;1.20;;;4.80;98.00;;;;;;5090178;28;20515;-70
2021/04/12 02:20:00;;;;;;;1.20;1.00;;;4.70;98.00;;;;;;5092754;28;20516;-70
2021/04/12 02:23:06;;;;;;;2.07;1.30;;;4.70;98.00;;;;;;5088691;28;20579;-72
2021/04/12 02:25:40;;;;;;;1.20;0.90;;;4.70;98.00;;;;;;5072028;28;20461;-71
2021/04/12 02:28:30;;;;;;;1.20;1.00;;;4.70;98.00;;;;;;5092500;28;20457;-71
2021/04/12 02:31:21;;;;;;;1.20;1.00;;;4.70;98.00;;;;;;5089765;28;20846;-73
2021/04/12 02:33:57;;;;;;;1.20;0.90;;;4.80;98.00;;;;;;5092295;28;20480;-70
2021/04/12 02:36:52;;;;;;;1.20;1.00;;;4.70;98.00;;;;;;5089622;28;20464;-70
2021/04/12 02:39:48;;;;;;;1.20;0.90;;;4.60;98.00;;;;;;5092079;28;20459;-72
2021/04/12 02:42:24;;;;;;;1.20;1.00;;;4.90;98.00;;;;;;5089525;28;20481;-73
2021/04/12 02:45:11;;;;;;;1.20;1.00;;;4.80;98.00;;;;;;5092235;28;20460;-72
2021/04/12 02:48:21;;;;;;;1.20;1.10;;;4.70;98.00;;;;;;5089605;28;20464;-73
2021/04/12 02:50:55;;;;;;;1.30;1.23;;;4.90;98.00;;;;;;5027140;28;20456;-73
2021/04/12 02:53:41;;;;;;;1.20;0.90;;;5.00;98.00;;;;;;5029748;28;20987;-72
2021/04/12 02:56:29;;;;;;;1.50;1.20;;;5.00;98.00;;;;;;5069463;28;20940;-71
2021/04/12 02:59:31;;;;;;;2.00;1.20;;;4.90;98.00;;;;;;5092231;28;20878;-72
2021/04/12 03:02:27;;;;;;;1.20;1.00;;;4.70;98.00;;;;;;5072692;28;20933;-72
2021/04/12 03:05:07;;;;;;;1.20;1.00;;;4.60;98.00;;;;;;5089814;28;20462;-72
2021/04/12 03:08:03;;;;;;;1.20;1.03;;;4.40;98.00;;;;;;5088354;28;20483;-72
2021/04/12 03:10:53;;;;;;;1.20;1.00;;;4.50;98.00;;;;;;5091789;28;20451;-72
2021/04/12 03:14:03;;;;;;;1.53;1.33;;;4.60;98.00;;;;;;5091750;28;20954;-72
2021/04/12 03:16:57;;;;;;;1.20;1.00;;;4.90;98.00;;;;;;5088007;28;21022;-72
2021/04/12 03:19:58;;;;;;;1.20;0.90;;;4.80;98.00;;;;;;5091805;28;20461;-72
2021/04/12 03:22:59;;;;;;;1.20;1.00;;;4.80;98.00;;;;;;5088742;28;20492;-72
2021/04/12 03:25:35;;;;;;;1.20;0.90;;;4.70;98.00;;;;;;5091660;28;20513;-72
2021/04/12 03:28:17;;;;;;;1.20;1.00;;;4.90;98.00;;;;;;5091599;28;20467;-72
2021/04/12 03:30:56;;;;;;;1.40;1.30;;;4.80;98.00;;;;;;5088561;28;20896;-73
2021/04/12 03:33:32;;;;;;;1.20;0.90;;;4.90;98.00;;;;;;5091916;28;20479;-72
2021/04/12 03:36:24;;;;;;;1.20;0.90;;;4.90;98.00;;;;;;5088935;28;20490;-72
2021/04/12 03:39:02;;;;;;;1.57;1.10;;;5.00;98.00;;;;;;5090391;28;20592;-72
2021/04/12 03:42:12;;;;;;;1.20;1.00;;;4.80;98.00;;;;;;5088544;28;20457;-72
2021/04/12 03:45:21;;;;;;;1.20;1.10;;;4.80;98.00;;;;;;5075945;28;20468;-72
2021/04/12 03:48:08;;;;;;;1.20;1.10;;;4.70;98.00;;;;;;5088419;28;20451;-72
2021/04/12 03:51:02;;;;;;;2.03;1.27;;;4.70;98.00;;;;;;5087958;28;20972;-72
2021/04/12 03:53:59;;;;;;;1.20;1.10;;;4.80;98.00;;;;;;5090787;28;20459;-73
2021/04/12 03:56:40;;;;;;;2.60;1.33;;;4.70;98.00;;;;;;5088348;28;20470;-72
2021/04/12 03:59:17;;;;;;;1.20;1.00;;;4.70;98.00;;;;;;5091006;28;20491;-72
2021/04/12 04:02:32;;;;;;;1.20;1.00;;;4.60;98.00;;;;;;5088506;28;20468;-72
2021/04/12 04:05:18;;;;;;;1.20;1.10;;;4.40;98.00;;;;;;5028719;28;20494;-73
2021/04/12 04:08:15;;;;;;;1.20;1.00;;;4.30;98.00;;;;;;5081831;28;20924;-72
2021/04/12 04:11:02;;;;;;;1.20;1.10;;;4.40;98.00;;;;;;5089092;28;20829;-73
2021/04/12 04:13:38;;;;;;;1.60;1.30;;;4.40;98.00;;;;;;5091194;28;20462;-73
2021/04/12 04:16:28;;;;;;;1.20;1.00;;;4.20;98.00;;;;;;5088548;28;20488;-73
2021/04/12 04:19:02;;;;;;;1.20;1.00;;;4.20;98.00;;;;;;5091236;28;20456;-73
2021/04/12 04:22:06;;;;;;;1.20;1.10;;;4.20;98.00;;;;;;5088215;28;20464;-73
2021/04/12 04:25:17;;;;;;;1.20;1.00;;;4.10;98.00;;;;;;5091238;28;20513;-72
2021/04/12 04:27:57;;;;;;;1.63;1.43;;;4.30;98.00;;;;;;5089159;28;20459;-72
2021/04/12 04:30:45;;;;;;;1.20;1.00;;;4.40;98.00;;;;;;5095011;28;20451;-72
2021/04/12 04:33:40;;;;;;;1.47;1.20;;;4.40;98.00;;;;;;5094837;28;20456;-72
2021/04/12 04:36:31;;;;;;;1.20;1.00;;;4.40;98.00;;;;;;5091745;28;20547;-73
2021/04/12 04:39:42;;;;;;;2.93;1.70;;;4.40;98.00;;;;;;5094770;28;20465;-72
2021/04/12 04:42:18;;;;;;;1.17;1.00;;;4.30;98.00;;;;;;5056065;28;20488;-72
2021/04/12 04:44:59;;;;;;;1.20;1.00;;;4.40;98.00;;;;;;5094478;28;20506;-73
2021/04/12 04:47:39;;;;;;;1.20;1.10;;;4.40;98.00;;;;;;5089510;28;20451;-72
2021/04/12 04:50:38;;;;;;;1.20;1.00;;;4.40;98.00;;;;;;5094605;28;20610;-72
2021/04/12 04:53:48;;;;;;;1.50;1.13;;;4.40;98.00;;;;;;5091560;28;20451;-73
2021/04/12 04:56:23;;;;;;;1.20;1.10;;;4.20;98.00;;;;;;5060360;28;20468;-73
2021/04/12 04:59:10;;;;;;;1.20;1.00;;;4.30;98.00;;;;;;5094384;28;20452;-73
2021/04/12 05:01:52;;;;;;;1.20;0.90;;;4.40;98.00;;;;;;5091447;28;20792;-72
2021/04/12 05:05:04;;;;;;;1.20;0.93;;;4.50;98.00;;;;;;5094205;28;20468;-73
2021/04/12 05:07:50;;;;;;;1.60;1.10;;;4.60;98.00;;;;;;5091207;28;20479;-72
2021/04/12 05:10:43;;;;;;;1.20;1.20;;;4.60;98.00;;;;;;5094229;28;20517;-72
2021/04/12 05:13:19;;;;;;;1.20;1.13;;;4.60;98.00;;;;;;5092542;28;20962;-72
2021/04/12 05:16:19;;;;;;;1.20;1.00;;;4.70;98.00;;;;;;5092125;28;20456;-70
2021/04/12 05:19:21;;;;;;;1.20;0.90;;;4.70;98.00;;;;;;5088713;28;20861;-72
2021/04/12 05:22:22;;;;;;;1.20;1.00;;;4.70;98.00;;;;;;5090803;28;20471;-72
2021/04/12 05:25:00;;;;;;;1.20;1.00;;;4.80;98.00;;;;;;5093602;28;20513;-72
2021/04/12 05:27:57;;;;;;;1.97;1.57;;;4.80;98.00;;;;;;5090809;28;20492;-72
2021/04/12 05:30:55;;;;;;;1.20;1.00;;;4.70;98.00;;;;;;5093615;28;20495;-72
2021/04/12 05:33:41;;;;;;;1.20;0.90;;;4.80;98.00;;;;;;5071877;28;20464;-72
2021/04/12 05:36:42;;;;;;;1.20;1.10;;;4.70;98.00;;;;;;5089495;28;20460;-72
2021/04/12 05:39:25;;;;;;;2.43;1.30;;;4.60;98.00;;;;;;5092616;28;20456;-72
2021/04/12 05:42:24;;;;;;;1.40;1.17;;;4.60;98.00;;;;;;5090721;28;20456;-72
2021/04/12 05:45:20;;;;;;;1.20;1.00;;;4.30;98.00;;;;;;5031228;28;20459;-72
2021/04/12 05:48:22;;;;;;;1.20;1.20;;;4.30;98.00;;;;;;5084649;28;20456;-72
2021/04/12 05:51:02;;;;;;;1.20;1.00;;;4.40;98.00;;;;;;5091610;28;20455;-73
2021/04/12 05:54:01;;;;;;;1.20;1.00;;;4.50;98.00;;;;;;5093574;28;20716;-72
2021/04/12 05:57:05;;;;;;;1.20;1.00;;;4.50;98.00;;;;;;5063555;28;20640;-71
2021/04/12 05:59:44;;;;;;;1.20;0.90;;;4.60;98.00;;;;;;5059231;28;20456;-72
2021/04/12 06:02:26;;;;;;;1.20;1.00;;;4.50;98.00;;;;;;5090226;28;20523;-72
2021/04/12 06:05:02;;;;;;;1.50;1.10;;;4.30;98.00;;;;;;5092898;28;20966;-72
2021/04/12 06:08:22;;;;;;;1.20;1.00;;;4.40;98.00;;;;;;5090095;28;20458;-71
2021/04/12 06:11:29;;;;;;;1.20;0.90;;;4.30;98.00;;;;;;5092210;28;20444;-71
2021/04/12 06:14:25;;;;;;;1.20;0.90;;;4.10;98.00;;;;;;5092705;28;20463;-71
2021/04/12 06:17:18;;;;;;;1.20;1.00;;;4.00;98.00;;;;;;5089899;28;20962;-71
2021/04/12 06:20:19;;;;;;;4.80;1.60;;;4.00;98.00;;;;;;5092497;28;20964;-71
2021/04/12 06:23:18;;;;;;;1.30;1.13;;;3.90;98.00;;;;;;5089671;28;20567;-72
2021/04/12 06:26:33;;;;;;;2.13;1.40;;;4.00;98.00;;;;;;5076649;28;20484;-71
2021/04/12 06:29:24;;;;;;;1.20;1.00;;;4.20;98.00;;;;;;5092569;28;20984;-71
2021/04/12 06:32:27;;;;;;;1.20;1.00;;;4.20;98.00;;;;;;5089687;28;20456;-70
2021/04/12 06:35:15;;;;;;;1.30;1.00;;;4.20;98.00;;;;;;5061270;28;20444;-71
2021/04/12 06:38:09;;;;;;;1.53;1.53;;;4.10;98.00;;;;;;5089563;28;20464;-71
2021/04/12 06:41:20;;;;;;;1.20;0.90;;;4.00;98.00;;;;;;5092487;28;20460;-71
2021/04/12 06:44:06;;;;;;;1.20;0.90;;;4.30;98.00;;;;;;5092286;28;20484;-71
2021/04/12 06:47:02;;;;;;;1.30;1.10;;;4.10;98.00;;;;;;5090078;28;20456;-70
2021/04/12 06:50:04;;;;;;;1.20;1.10;;;4.10;98.00;;;;;;5092284;28;20460;-71
2021/04/12 06:53:08;;;;;;;1.20;1.00;;;4.10;98.00;;;;;;5088917;28;20459;-71
2021/04/12 06:56:07;;;;;;;1.20;1.00;;;4.10;98.00;;;;;;5091956;28;20516;-71
2021/04/12 06:58:59;;;;;;;1.20;1.00;;;4.20;98.00;;;;;;5091924;28;20455;-69
2021/04/12 07:01:53;;;;;;;1.20;0.90;;;4.20;98.00;;;;;;5078449;28;20520;-70
2021/04/12 07:04:59;;;;;;;1.20;1.00;;;4.40;98.00;;;;;;5057706;28;20515;-70
2021/04/12 07:08:10;;;;;;;1.20;1.00;;;4.40;98.00;;;;;;5088916;28;20451;-70
2021/04/12 07:11:14;;;;;;;1.20;1.00;;;4.60;98.00;;;;;;5090683;28;20511;-71
2021/04/12 07:14:09;;;;;;;1.30;1.10;;;4.80;98.00;;;;;;5091758;28;20813;-70
2021/04/12 07:17:14;;;;;;;1.20;1.00;;;4.80;98.00;;;;;;5062838;28;20898;-71
2021/04/12 07:20:09;;;;;;;1.20;1.00;;;4.90;98.00;;;;;;5065457;28;20451;-70
2021/04/12 07:23:03;;;;;;;1.43;1.20;;;4.80;98.00;;;;;;5087573;28;20484;-70
2021/04/12 07:26:04;;;;;;;1.20;1.10;;;4.80;98.00;;;;;;5091615;28;20452;-71
2021/04/12 07:29:11;;;;;;;1.20;1.00;;;4.90;98.00;;;;;;5091380;28;20460;-70
2021/04/12 07:32:15;;;;;;;1.20;1.00;;;5.10;98.00;;;;;;5087363;28;20517;-71
2021/04/12 07:35:17;;;;;;;1.20;1.00;;;4.90;98.00;;;;;;5091008;28;20451;-74
2021/04/12 07:38:21;;;;;;;1.20;1.00;;;4.90;98.00;;;;;;5088534;28;20860;-73
2021/04/12 07:41:42;;;;;;;1.20;1.00;;;5.10;98.00;;;;;;5089656;28;20512;-70
2021/04/12 07:45:03;;;;;;;1.20;0.90;;;5.10;98.00;;;;;;5074568;28;20906;-73
2021/04/12 07:48:10;;;;;;;1.20;1.00;;;5.00;98.00;;;;;;5054732;28;20456;-72
2021/04/12 07:51:21;;;;;;;1.20;1.00;;;5.00;98.00;;;;;;5070577;28;20461;-71
2021/04/12 07:54:33;;;;;;;1.47;1.30;;;5.10;98.00;;;;;;5070734;28;20454;-75
2021/04/12 07:57:51;;;;;;;1.20;0.97;;;5.20;98.00;;;;;;5067884;28;20954;-71
2021/04/12 08:01:03;;;;;;;1.20;1.10;;;5.20;98.00;;;;;;5070365;28;20464;-73
2021/04/12 08:03:56;;;;;;;1.20;1.10;;;5.40;98.00;;;;;;5073482;28;20537;-69
2021/04/12 08:07:00;;;;;;;1.20;1.10;;;5.30;98.00;;;;;;5071696;28;20819;-73
2021/04/12 08:09:59;;;;;;;1.93;1.50;;;5.30;98.00;;;;;;5074439;28;20462;-72
2021/04/12 08:13:05;;;;;;;1.20;0.90;;;5.50;98.00;;;;;;5071730;28;20827;-73
2021/04/12 08:16:26;;;;;;;1.20;1.10;;;5.50;98.00;;;;;;5074275;28;20453;-73
2021/04/12 08:19:18;;;;;;;1.20;1.00;;;5.40;98.00;;;;;;5074033;28;20479;-70
2021/04/12 08:22:33;;;;;;;1.30;1.30;;;5.40;98.00;;;;;;5065890;28;20454;-74
2021/04/12 08:25:32;;;;;;;1.20;1.00;;;5.40;98.00;;;;;;5053144;28;20459;-72
2021/04/12 08:28:34;;;;;;;1.20;1.00;;;5.50;98.00;;;;;;5071302;28;20509;-74
2021/04/12 08:31:56;;;;;;;1.20;1.00;;;5.50;98.00;;;;;;5072514;28;20469;-71
2021/04/12 08:35:13;;;;;;;1.73;1.20;;;5.60;98.00;;;;;;5031510;28;20460;-73
2021/04/12 08:38:03;;;;;;;1.30;1.17;;;5.40;98.00;;;;;;5091405;28;20450;-74
2021/04/12 08:41:08;;;;;;;1.50;1.30;;;5.10;98.00;;;;;;5093900;28;20455;-73
2021/04/12 08:44:28;;;;;;;1.40;1.10;;;5.00;98.00;;;;;;5093516;28;20566;-73
2021/04/12 08:47:45;;;;;;;2.93;1.93;;;4.90;98.00;;;;;;5084685;28;20482;-71
2021/04/12 08:50:47;;;;;;;2.50;1.33;;;4.80;98.00;;;;;;5039883;28;20461;-72
2021/04/12 08:53:40;;;;;;;1.20;1.00;;;5.00;98.00;;;;;;5089165;28;20812;-73
2021/04/12 08:56:46;;;;;;;1.20;1.07;;;5.00;98.00;;;;;;5063917;28;20463;-74
2021/04/12 08:59:49;;;;;;;1.50;1.40;;;5.00;98.00;;;;;;5088546;28;20479;-73
2021/04/12 09:02:53;;;;;;;1.37;1.20;;;5.10;98.00;;;;;;5058976;28;20461;-74
2021/04/12 09:06:13;;;;;;;1.30;1.20;;;5.20;98.00;;;;;;5092820;28;20459;-73
2021/04/12 09:09:25;;;;;;;1.87;1.47;;;5.40;98.00;;;;;;5086693;28;20508;-73
2021/04/12 09:12:26;;;;;;;1.20;1.00;;;5.50;98.00;;;;;;5061421;28;20492;-73
2021/04/12 09:15:26;;;;;;;1.20;1.10;;;5.50;98.00;;;;;;5088608;28;20486;-71
2021/04/12 09:18:30;;;;;;;1.53;1.50;;;5.60;98.00;;;;;;5078029;28;20455;-72
2021/04/12 09:21:26;;;;;;;2.37;2.23;;;5.60;98.00;;;;;;5081889;28;20452;-72
2021/04/12 09:24:12;;;;;;;1.30;1.10;;;5.70;98.00;;;;;;5092775;28;20971;-73
2021/04/12 09:27:03;;;;;;;2.60;1.30;;;5.90;98.00;;;;;;5090506;28;20454;-74
2021/04/12 09:30:11;;;;;;;1.30;1.17;;;7.70;98.00;;;;;;5092816;28;20492;-74
2021/04/12 09:33:09;;;;;;;1.90;1.30;;;8.40;98.00;;;;;;5089657;28;20448;-74
2021/04/12 09:36:20;;;;;;;2.80;1.57;;;8.00;98.00;;;;;;5092579;28;20457;-74
2021/04/12 09:39:34;;;;;;;1.93;1.50;;;7.30;98.00;;;;;;5081786;28;20501;-74
2021/04/12 09:42:46;;;;;;;2.17;1.50;;;6.90;98.00;;;;;;5007146;28;20471;-74
2021/04/12 09:45:48;;;;;;;1.20;1.20;;;6.60;98.00;;;;;;5043851;28;20462;-74
2021/04/12 09:48:56;;;;;;;1.40;1.40;;;6.40;98.00;;;;;;5079393;28;20904;-74
2021/04/12 09:52:05;;;;;;;2.07;1.60;;;6.40;98.00;;;;;;5089918;28;20468;-74
2021/04/12 09:55:02;;;;;;;1.30;1.30;;;6.30;98.00;;;;;;5092134;28;20469;-73
2021/04/12 09:58:02;;;;;;;1.50;1.10;;;6.30;98.00;;;;;;5089280;28;20526;-74
2021/04/12 10:00:43;;;;;;;1.20;1.10;;;6.30;98.00;;;;;;5092481;28;20459;-74
2021/04/12 10:04:00;;;;;;;1.30;1.10;;;6.40;98.00;;;;;;5089645;28;20476;-73
2021/04/12 10:07:01;;;;;;;1.30;1.30;;;6.60;98.00;;;;;;5089343;28;20454;-74
2021/04/12 10:09:40;;;;;;;1.67;1.40;;;6.40;98.00;;;;;;5092347;28;20823;-74
2021/04/12 10:12:30;;;;;;;1.20;1.00;;;6.50;98.00;;;;;;5090161;28;20464;-74
2021/04/12 10:15:04;;;;;;;1.20;1.00;;;6.40;98.00;;;;;;5087918;28;20466;-74
2021/04/12 10:17:39;;;;;;;1.20;1.00;;;6.40;98.00;;;;;;5088889;28;20455;-74
2021/04/12 10:20:13;;;;;;;3.33;1.30;;;6.50;98.00;;;;;;5092084;28;20549;-74
2021/04/12 10:22:49;;;;;;;1.20;1.10;;;6.40;98.00;;;;;;5089114;28;20894;-73
2021/04/12 10:25:27;;;;;;;1.20;1.00;;;6.20;98.00;;;;;;5090740;28;20503;-74
2021/04/12 10:28:02;;;;;;;2.07;1.37;;;6.10;98.00;;;;;;5089075;28;20793;-74
2021/04/12 10:30:37;;;;;;;1.47;1.30;;;6.20;98.00;;;;;;5090442;28;20981;-74
2021/04/12 10:33:11;;;;;;;1.30;1.30;;;6.20;98.00;;;;;;5088623;28;20526;-73
2021/04/12 10:35:42;;;;;;;1.37;1.20;;;6.30;98.00;;;;;;5091663;28;20513;-74
2021/04/12 10:38:18;;;;;;;3.07;2.50;;;6.40;98.00;;;;;;5051362;28;20496;-75
2021/04/12 10:40:51;;;;;;;1.20;1.00;;;6.50;98.00;;;;;;5051187;28;20536;-74
2021/04/12 10:43:22;;;;;;;3.03;1.63;;;6.30;98.00;;;;;;5057031;28;20496;-75
2021/04/12 10:45:55;;;;;;;3.40;1.90;;;6.40;98.00;;;;;;5069942;28;20462;-72
2021/04/12 10:48:27;;;;;;;1.30;1.10;;;6.60;98.00;;;;;;5068278;28;20536;-73
2021/04/12 10:51:01;;;;;;;1.20;1.00;;;6.70;98.00;;;;;;5070664;28;20460;-73
2021/04/12 10:54:08;;;;;;;1.50;1.30;;;6.60;98.00;;;;;;5068567;28;20487;-73
2021/04/12 10:56:41;;;;;;;1.40;1.27;;;6.80;98.00;;;;;;5069369;28;20475;-72
2021/04/12 10:59:31;;;;;;;3.33;1.60;;;6.60;98.00;;;;;;5072356;28;20482;-73
2021/04/12 11:02:03;;;;;;;1.30;1.20;;;6.50;97.50;;;;;;5068362;28;20462;-73
2021/04/12 11:04:53;;;;;;;1.60;1.43;;;6.50;97.80;;;;;;5070600;28;20481;-73
2021/04/12 11:07:28;;;;;;;1.20;1.00;;;6.60;98.00;;;;;;5064553;28;20454;-72
2021/04/12 11:10:02;;;;;;;1.20;1.10;;;6.80;98.00;;;;;;5071183;28;20458;-73
2021/04/12 11:12:45;;;;;;;1.20;1.00;;;7.00;98.00;;;;;;5067850;28;20457;-72
2021/04/12 11:15:21;;;;;;;1.40;1.20;;;7.10;96.30;;;;;;5080964;28;20514;-74
2021/04/12 11:17:59;;;;;;;1.67;1.37;;;7.30;96.70;;;;;;5067996;28;20483;-74
2021/04/12 11:20:39;;;;;;;1.30;1.10;;;7.40;95.10;;;;;;5070797;28;20456;-73
2021/04/12 11:23:15;;;;;;;1.20;1.00;;;7.40;94.10;;;;;;5066713;28;20519;-74
2021/04/12 11:25:49;;;;;;;1.20;1.10;;;7.00;92.10;;;;;;5067511;28;20495;-76
2021/04/12 11:28:35;;;;;;;1.20;1.10;;;7.00;95.50;;;;;;5068254;28;20458;-72
2021/04/12 11:31:13;;;;;;;1.20;1.10;;;7.00;96.50;;;;;;5071015;28;20531;-73
2021/04/12 11:33:50;;;;;;;1.20;1.10;;;7.00;96.50;;;;;;5067995;28;20570;-72
2021/04/12 11:36:34;;;;;;;2.27;1.70;;;6.90;95.60;;;;;;5070473;28;20460;-72
2021/04/12 11:39:07;;;;;;;1.20;1.00;;;6.60;95.70;;;;;;5074660;28;21047;-72
2021/04/12 11:41:45;;;;;;;2.57;1.67;;;6.40;97.20;;;;;;5071987;28;20467;-75
2021/04/12 11:44:17;;;;;;;2.43;2.17;;;6.50;98.00;;;;;;5074833;28;20964;-71
2021/04/12 11:47:20;;;;;;;1.70;1.40;;;6.50;97.60;;;;;;5070946;28;20459;-70
2021/04/12 11:50:07;;;;;;;1.40;1.17;;;6.70;97.40;;;;;;5069180;28;21184;-73
2021/04/12 11:52:48;;;;;;;2.03;1.33;;;6.80;96.60;;;;;;5072088;28;20456;-72
2021/04/12 11:55:25;;;;;;;1.20;0.90;;;6.80;96.20;;;;;;5074360;28;20459;-72
2021/04/12 11:57:55;;;;;;;1.80;1.53;;;6.80;94.50;;;;;;5071881;28;20463;-71
2021/04/12 12:00:28;;;;;;;1.20;0.90;;;7.00;94.40;;;;;;5074822;28;20470;-68
2021/04/12 12:03:13;;;;;;;1.40;1.40;;;7.00;94.40;;;;;;5072501;28;20541;-72
2021/04/12 12:05:52;;;;;;;1.20;1.10;;;7.20;96.00;;;;;;5074346;28;20976;-71
2021/04/12 12:08:22;;;;;;;1.20;0.90;;;7.40;96.80;;;;;;5072062;28;20460;-72
2021/04/12 12:11:01;;;;;;;1.20;1.10;;;7.30;91.20;;;;;;5074046;28;20515;-71
2021/04/12 12:13:42;;;;;;;1.20;0.90;;;7.40;89.70;;;;;;5071535;28;20460;-71
2021/04/12 12:16:26;;;;;;;1.20;1.00;;;7.50;87.40;;;;;;5073894;28;20868;-73
2021/04/12 12:18:58;;;;;;;1.40;1.10;;;7.60;88.60;;;;;;5071518;28;20797;-73
2021/04/12 12:21:29;;;;;;;1.20;1.00;;;7.90;90.00;;;;;;5073660;28;20483;-73
2021/04/12 12:24:11;;;;;;;1.20;1.00;;;7.80;90.00;;;;;;5073608;28;20487;-73
2021/04/12 12:26:42;;;;;;;1.20;1.00;;;7.80;87.90;;;;;;5071201;28;20457;-73
2021/04/12 12:29:16;;;;;;;4.80;1.57;;;7.70;87.70;;;;;;5073850;28;20483;-73
2021/04/12 12:32:14;;;;;;;1.30;1.30;;;7.50;88.00;;;;;;5071071;28;20896;-74
2021/04/12 12:34:50;;;;;;;1.50;1.30;;;7.50;86.90;;;;;;5073464;28;21003;-73
2021/04/12 12:37:27;;;;;;;1.30;1.10;;;7.60;90.00;;;;;;5071004;28;20857;-73
2021/04/12 12:39:56;;;;;;;1.40;1.07;;;8.00;91.40;;;;;;5073815;28;20551;-73
2021/04/12 12:42:27;;;;;;;1.20;1.00;;;8.30;87.10;;;;;;5070590;28;20461;-72
2021/04/12 12:44:55;;;;;;;1.83;1.30;;;8.30;86.50;;;;;;5073568;28;20461;-72
2021/04/12 12:47:25;;;;;;;1.20;1.10;;;8.20;85.20;;;;;;5070908;28;20463;-73
2021/04/12 12:49:57;;;;;;;1.20;1.10;;;8.30;86.40;;;;;;5073620;28;20512;-72
2021/04/12 12:52:30;;;;;;;1.20;1.00;;;8.20;86.50;;;;;;5070801;28;20457;-72
2021/04/12 12:54:58;;;;;;;1.87;1.30;;;8.30;85.70;;;;;;5073217;28;20457;-72
2021/04/12 12:57:31;;;;;;;1.63;1.40;;;8.30;87.20;;;;;;5070778;28;20450;-72
2021/04/12 13:00:00;;;;;;;1.20;1.10;;;8.40;87.60;;;;;;5073489;28;20799;-72
2021/04/12 13:02:36;;;;;;;1.20;1.00;;;8.40;85.80;;;;;;5070883;28;20931;-72
2021/04/12 13:05:08;;;;;;;1.20;1.00;;;8.40;85.50;;;;;;5072310;28;20461;-72
2021/04/12 13:07:37;;;;;;;1.20;1.17;;;8.50;85.90;;;;;;5070693;28;20455;-72
2021/04/12 13:10:09;;;;;;;1.20;1.10;;;8.10;84.10;;;;;;5072785;28;20463;-72
2021/04/12 13:12:38;;;;;;;1.30;1.10;;;8.00;86.30;;;;;;5070786;28;20468;-72
2021/04/12 13:15:19;;;;;;;1.63;1.20;;;8.00;87.40;;;;;;5073582;28;20461;-73
2021/04/12 13:17:47;;;;;;;2.03;1.10;;;8.10;85.10;;;;;;5070744;28;21030;-73
2021/04/12 13:20:24;;;;;;;1.40;1.13;;;8.20;84.70;;;;;;5073416;28;20457;-71
2021/04/12 13:23:05;;;;;;;1.30;1.10;;;8.30;86.20;;;;;;5070435;28;20484;-72
2021/04/12 13:25:37;;;;;;;1.20;1.00;;;8.50;85.60;;;;;;5072896;28;20457;-71
2021/04/12 13:28:11;;;;;;;1.20;1.10;;;8.90;85.30;;;;;;5068980;28;20564;-72
2021/04/12 13:30:42;;;;;;;1.30;1.10;;;9.30;81.50;;;;;;5073652;28;20489;-71
2021/04/12 13:33:13;;;;;;;1.40;1.30;;;9.40;81.20;;;;;;5070529;28;20447;-71
2021/04/12 13:35:44;;;;;;;1.97;1.03;;;9.40;81.00;;;;;;5073482;28;20927;-72
2021/04/12 13:38:16;;;;;;;1.20;1.10;;;9.30;82.40;;;;;;5070616;28;20482;-72
2021/04/12 13:40:50;;;;;;;1.20;1.20;;;9.40;80.40;;;;;;5073214;28;20461;-71
2021/04/12 13:43:19;;;;;;;1.30;1.10;;;9.20;78.80;;;;;;5070306;28;20482;-71
2021/04/12 13:45:48;;;;;;;1.20;0.90;;;9.20;81.60;;;;;;5072926;28;20477;-72
2021/04/12 13:48:21;;;;;;;1.50;1.43;;;9.30;80.10;;;;;;5070029;28;20458;-71
2021/04/12 13:50:57;;;;;;;1.47;1.13;;;9.40;81.00;;;;;;5071657;28;20972;-71
2021/04/12 13:53:35;;;;;;;1.80;1.27;;;9.30;81.20;;;;;;5069838;28;20441;-72
2021/04/12 13:56:15;;;;;;;1.40;1.10;;;9.20;80.80;;;;;;5072520;28;20540;-71
2021/04/12 13:58:45;;;;;;;1.70;1.10;;;9.20;81.50;;;;;;5069642;28;20465;-71
2021/04/12 14:01:16;;;;;;;1.33;1.10;;;9.30;82.20;;;;;;5072144;28;20470;-71
2021/04/12 14:03:57;;;;;;;1.30;1.10;;;9.40;80.60;;;;;;5068552;28;20572;-71
2021/04/12 14:06:30;;;;;;;1.30;1.10;;;9.70;79.90;;;;;;5072523;28;20560;-71
2021/04/12 14:09:01;;;;;;;2.20;1.67;;;9.80;79.00;;;;;;5068143;28;20517;-71
2021/04/12 14:11:34;;;;;;;1.30;1.07;;;10.40;79.80;;;;;;5072475;28;20457;-71
2021/04/12 14:14:14;;;;;;;1.47;1.20;;;11.00;79.50;;;;;;5068375;28;20472;-71
2021/04/12 14:16:41;;;;;;;1.43;1.10;;;11.30;75.80;;;;;;5070742;28;20499;-71
2021/04/12 14:19:12;;;;;;;1.33;1.13;;;11.40;77.70;;;;;;5072010;28;21037;-71
2021/04/12 14:21:46;;;;;;;1.20;1.00;;;11.60;75.70;;;;;;5071769;28;20464;-71
2021/04/12 14:24:20;;;;;;;1.20;1.10;;;12.10;72.90;;;;;;5072218;28;20858;-71
2021/04/12 14:26:50;;;;;;;1.20;1.10;;;12.30;70.60;;;;;;5069222;28;20459;-71
2021/04/12 14:29:25;;;;;;;1.63;1.10;;;12.50;70.10;;;;;;5072006;28;20460;-71
2021/04/12 14:31:52;;;;;;;1.20;1.00;;;12.70;70.00;;;;;;5069343;28;20490;-71
2021/04/12 14:34:26;;;;;;;1.93;1.30;;;12.10;69.00;;;;;;5071764;28;20594;-71
2021/04/12 14:36:53;;;;;;;1.20;1.00;;;11.60;64.80;;;;;;5067754;28;20464;-71
2021/04/12 14:39:27;;;;;;;1.20;1.10;;;11.60;70.70;;;;;;5071720;28;20460;-71
2021/04/12 14:41:57;;;;;;;1.20;1.07;;;11.80;70.00;;;;;;5068740;28;20891;-71
2021/04/12 14:44:30;;;;;;;1.20;1.00;;;11.30;67.60;;;;;;5053895;28;21015;-71